createdAt,value
2019-01-06T00:01:05.391Z,19.60
2019-01-06T00:03:38.499Z,18.20
2019-01-06T00:06:11.352Z,18.80
2019-01-06T00:08:47.932Z,19.10
2019-01-06T00:11:20.816Z,18.20
2019-01-06T00:13:57.059Z,17.80
2019-01-06T00:16:27.677Z,18.00
2019-01-06T00:19:00.455Z,17.60
2019-01-06T00:21:47.122Z,18.30
2019-01-06T00:24:19.936Z,18.10
2019-01-06T00:27:06.625Z,18.80
2019-01-06T00:29:46.092Z,18.70
2019-01-06T00:32:28.643Z,19.60
2019-01-06T00:35:01.497Z,20.20
2019-01-06T00:37:31.705Z,20.40
2019-01-06T00:40:20.016Z,20.60
2019-01-06T00:43:06.847Z,20.50
2019-01-06T00:45:39.935Z,20.10
2019-01-06T00:48:10.156Z,20.00
2019-01-06T00:50:40.364Z,20.00
2019-01-06T00:53:19.136Z,20.20
2019-01-06T00:55:55.369Z,20.60
2019-01-06T00:58:37.900Z,20.50
2019-01-06T01:01:11.188Z,20.10
2019-01-06T01:03:50.349Z,20.30
2019-01-06T01:06:36.499Z,19.90
2019-01-06T01:09:44.215Z,19.50
2019-01-06T01:12:17.117Z,19.50
2019-01-06T01:14:50.096Z,19.10
2019-01-06T01:17:26.447Z,19.00
2019-01-06T01:20:02.547Z,19.20
2019-01-06T01:22:38.580Z,19.10
2019-01-06T01:25:26.778Z,18.90
2019-01-06T01:28:05.926Z,19.70
2019-01-06T01:30:47.932Z,19.90
2019-01-06T01:33:27.160Z,19.40
2019-01-06T01:36:03.184Z,19.70
2019-01-06T01:38:33.322Z,19.40
2019-01-06T01:41:15.598Z,20.00
2019-01-06T01:44:00.816Z,20.60
2019-01-06T01:46:31.055Z,20.70
2019-01-06T01:49:07.480Z,20.60
2019-01-06T01:51:43.987Z,20.60
2019-01-06T01:54:16.821Z,20.90
2019-01-06T01:56:47.077Z,21.10
2019-01-06T01:59:19.974Z,20.70
2019-01-06T02:01:59.561Z,21.00
2019-01-06T02:04:41.624Z,21.20
2019-01-06T02:07:26.626Z,20.80
2019-01-06T02:10:13.562Z,19.90
2019-01-06T02:13:00.317Z,19.60
2019-01-06T02:15:33.517Z,19.90
2019-01-06T02:18:19.144Z,19.50
2019-01-06T02:20:55.126Z,20.20
2019-01-06T02:23:43.544Z,19.70
2019-01-06T02:26:19.785Z,19.50
2019-01-06T02:29:02.346Z,18.90
2019-01-06T02:31:47.430Z,19.40
2019-01-06T02:34:20.167Z,20.20
2019-01-06T02:37:02.077Z,20.20
2019-01-06T02:39:48.497Z,20.40
2019-01-06T02:42:34.896Z,20.50
2019-01-06T02:45:07.903Z,20.00
2019-01-06T02:47:44.310Z,19.30
2019-01-06T02:50:26.534Z,18.90
2019-01-06T02:53:08.912Z,18.80
2019-01-06T02:55:48.172Z,19.20
2019-01-06T02:58:24.323Z,19.10
2019-01-06T03:01:00.681Z,19.60
2019-01-06T03:03:36.759Z,20.20
2019-01-06T03:06:09.752Z,20.20
2019-01-06T03:08:40.261Z,19.10
2019-01-06T03:11:22.392Z,19.00
2019-01-06T03:13:55.279Z,19.60
2019-01-06T03:16:43.848Z,20.10
2019-01-06T03:19:17.007Z,20.10
2019-01-06T03:21:50.162Z,19.10
2019-01-06T03:24:36.401Z,19.90
2019-01-06T03:27:21.848Z,19.10
2019-01-06T03:29:58.144Z,17.60
2019-01-06T03:32:31.219Z,18.20
2019-01-06T03:35:17.874Z,17.70
2019-01-06T03:38:04.744Z,18.00
2019-01-06T03:40:46.777Z,18.50
2019-01-06T03:43:17.247Z,17.80
2019-01-06T03:46:03.656Z,18.10
2019-01-06T03:48:36.912Z,18.00
2019-01-06T03:51:22.408Z,18.10
2019-01-06T03:53:52.595Z,18.00
2019-01-06T03:56:37.769Z,18.30
2019-01-06T03:59:08.019Z,18.00
2019-01-06T04:01:53.177Z,18.20
2019-01-06T04:04:23.640Z,17.70
2019-01-06T04:07:05.843Z,18.80
2019-01-06T04:09:38.818Z,18.10
2019-01-06T04:12:27.309Z,17.70
2019-01-06T04:15:03.199Z,17.30
2019-01-06T04:17:49.391Z,16.60
2019-01-06T04:20:22.332Z,17.60
2019-01-06T04:22:58.341Z,16.90
2019-01-06T04:25:44.458Z,17.30
2019-01-06T04:28:30.578Z,17.20
2019-01-06T04:31:18.901Z,17.20
2019-01-06T04:33:49.131Z,17.50
2019-01-06T04:36:21.977Z,17.50
2019-01-06T04:39:01.466Z,17.50
2019-01-06T04:41:49.771Z,17.50
2019-01-06T04:44:26.273Z,17.50
2019-01-06T04:46:56.479Z,17.70
2019-01-06T04:49:29.718Z,18.20
2019-01-06T04:52:02.367Z,17.70
2019-01-06T04:54:35.882Z,18.60
2019-01-06T04:57:18.076Z,19.00
2019-01-06T05:00:04.808Z,18.80
2019-01-06T05:02:40.561Z,18.60
2019-01-06T05:05:11.029Z,18.30
2019-01-06T08:43:48.585Z,20.90
2019-01-06T08:46:30.570Z,20.60
2019-01-06T08:49:13.164Z,20.70
2019-01-06T08:51:58.460Z,21.10
2019-01-06T08:54:43.853Z,22.00
2019-01-06T08:57:30.275Z,20.90
2019-01-06T09:00:08.645Z,21.70
2019-01-06T09:02:54.249Z,21.30
2019-01-06T09:05:26.938Z,21.00
2019-01-06T09:08:13.992Z,21.10
2019-01-06T09:10:45.398Z,21.20
2019-01-06T09:13:15.602Z,20.60
2019-01-06T09:16:03.699Z,20.50
2019-01-06T09:18:52.078Z,20.60
2019-01-06T09:21:24.865Z,21.40
2019-01-06T09:23:58.052Z,21.50
2019-01-06T09:26:33.832Z,20.60
2019-01-06T09:29:12.794Z,21.20
2019-01-06T09:32:02.516Z,21.10
2019-01-06T09:34:38.837Z,21.00
2019-01-06T09:37:23.888Z,21.50
2019-01-06T09:39:57.033Z,21.90
2019-01-06T09:42:36.283Z,21.20
2019-01-06T09:45:25.372Z,21.10
2019-01-06T09:48:07.753Z,20.30
2019-01-06T09:50:40.393Z,20.20
2019-01-06T09:53:10.549Z,20.30
2019-01-06T09:55:40.808Z,20.50
2019-01-06T09:58:11.017Z,20.20
2019-01-06T10:00:56.601Z,19.30
2019-01-06T10:03:26.814Z,19.30
2019-01-06T10:06:09.649Z,19.50
2019-01-06T10:08:57.886Z,19.90
2019-01-06T10:11:38.129Z,20.60
2019-01-06T10:14:23.673Z,18.90
2019-01-06T10:17:02.646Z,19.40
2019-01-06T10:19:38.411Z,19.50
2019-01-06T10:22:08.590Z,20.30
2019-01-06T10:24:38.810Z,20.20
2019-01-06T10:27:20.701Z,19.60
2019-01-06T10:29:53.654Z,19.60
2019-01-06T10:32:38.703Z,19.50
2019-01-06T10:35:20.591Z,20.50
2019-01-06T10:38:08.947Z,21.10
2019-01-06T10:40:55.558Z,21.80
2019-01-06T10:43:40.603Z,21.70
2019-01-06T10:46:34.687Z,21.80
2019-01-06T10:49:07.703Z,22.00
2019-01-06T10:51:40.638Z,22.10
2019-01-06T10:54:13.802Z,22.70
2019-01-06T10:56:59.229Z,21.90
2019-01-06T10:59:29.487Z,20.60
2019-01-06T11:01:59.707Z,20.60
2019-01-06T11:04:36.156Z,20.50
2019-01-06T11:07:15.657Z,20.30
2019-01-06T11:09:57.507Z,19.80
2019-01-06T11:12:37.244Z,20.60
2019-01-06T11:15:16.865Z,20.70
2019-01-06T11:17:47.067Z,20.60
2019-01-06T11:20:26.529Z,19.50
2019-01-06T11:23:08.441Z,19.70
2019-01-06T11:25:53.788Z,19.50
2019-01-06T11:28:23.940Z,19.10
2019-01-06T11:30:54.159Z,19.00
2019-01-06T11:33:40.811Z,19.60
2019-01-06T11:36:29.168Z,20.00
2019-01-06T11:39:05.473Z,20.00
2019-01-06T11:41:38.357Z,18.70
2019-01-06T11:44:11.536Z,18.70
2019-01-06T11:46:51.406Z,19.80
2019-01-06T11:49:37.916Z,19.80
2019-01-06T11:52:24.252Z,20.30
2019-01-06T11:54:57.474Z,19.70
2019-01-06T11:57:39.529Z,19.80
2019-01-06T12:00:13.054Z,19.70
2019-01-06T12:02:48.953Z,19.80
2019-01-06T12:05:19.193Z,19.90
2019-01-06T12:07:55.520Z,19.40
2019-01-06T12:10:34.815Z,19.10
2019-01-06T12:13:22.593Z,19.90
2019-01-06T12:16:03.117Z,20.20
2019-01-06T12:18:36.393Z,20.20
2019-01-06T12:21:23.246Z,19.80
2019-01-06T12:23:54.346Z,20.10
2019-01-06T12:26:24.686Z,19.80
2019-01-06T12:29:11.541Z,20.00
2019-01-06T12:31:53.762Z,19.80
2019-01-06T12:34:40.388Z,19.80
2019-01-06T12:37:25.807Z,19.70
2019-01-06T12:39:58.945Z,20.40
2019-01-06T12:42:29.159Z,21.30
2019-01-06T12:45:15.886Z,22.40
2019-01-06T12:48:02.277Z,21.90
2019-01-06T12:50:50.473Z,22.40
2019-01-06T12:53:39.115Z,22.00
2019-01-06T12:56:25.439Z,21.00
2019-01-06T12:59:11.420Z,20.10
2019-01-06T13:01:58.360Z,20.10
2019-01-06T13:04:34.564Z,19.20
2019-01-06T13:07:21.214Z,18.90
2019-01-06T13:09:54.162Z,18.60
2019-01-06T13:12:40.758Z,19.00
2019-01-06T13:15:30.901Z,19.90
2019-01-06T13:18:09.848Z,21.00
2019-01-06T13:20:40.049Z,21.40
2019-01-06T13:23:16.328Z,22.20
2019-01-06T13:25:55.530Z,21.10
2019-01-06T13:28:31.688Z,21.20
2019-01-06T13:31:07.689Z,21.30
2019-01-06T13:33:40.928Z,20.80
2019-01-06T13:36:19.925Z,20.40
2019-01-06T13:39:05.282Z,20.60
2019-01-06T13:41:51.824Z,20.60
2019-01-06T13:44:25.077Z,20.60
2019-01-06T13:46:55.212Z,20.50
2019-01-06T13:49:25.464Z,21.30
2019-01-06T13:51:58.792Z,21.60
2019-01-06T13:54:45.450Z,21.00
2019-01-06T13:57:19.120Z,21.60
2019-01-06T14:00:05.292Z,21.60
2019-01-06T14:02:38.285Z,21.30
2019-01-06T14:05:28.220Z,21.40
2019-01-06T14:08:04.897Z,21.50
2019-01-06T14:10:47.400Z,21.70
2019-01-06T14:13:33.057Z,22.20
2019-01-06T14:16:20.168Z,22.70
2019-01-06T14:18:53.247Z,23.10
2019-01-06T14:21:35.551Z,23.20
2019-01-06T14:24:17.778Z,22.90
2019-01-06T14:26:56.964Z,22.50
2019-01-06T14:29:43.843Z,22.50
2019-01-06T14:32:30.532Z,22.50
2019-01-06T14:35:17.382Z,22.60
2019-01-06T14:37:59.277Z,22.70
2019-01-06T14:40:32.260Z,22.90
2019-01-06T14:43:05.247Z,23.20
2019-01-06T14:45:38.329Z,23.20
2019-01-06T14:48:23.837Z,23.40
2019-01-06T14:50:54.087Z,23.60
2019-01-06T14:53:39.258Z,23.80
2019-01-06T14:56:25.695Z,23.90
2019-01-06T14:59:08.008Z,23.90
2019-01-06T15:01:44.223Z,23.60
2019-01-06T15:04:26.528Z,23.40
2019-01-06T15:07:12.141Z,22.90
2019-01-06T15:09:51.896Z,22.20
2019-01-06T15:12:22.169Z,22.60
2019-01-06T15:14:55.129Z,22.70
2019-01-06T15:17:32.300Z,23.00
2019-01-06T15:20:07.157Z,22.70
2019-01-06T15:22:55.464Z,22.30
2019-01-06T15:25:42.279Z,22.00
2019-01-06T15:28:12.556Z,21.50
2019-01-06T15:30:59.072Z,21.90
2019-01-06T15:33:45.679Z,22.10
2019-01-06T15:36:32.344Z,22.70
2019-01-06T15:39:18.862Z,22.90
2019-01-06T15:41:55.004Z,23.00
2019-01-06T15:44:28.239Z,23.10
2019-01-06T15:47:14.718Z,22.80
2019-01-06T15:49:44.979Z,23.00
2019-01-06T15:52:24.283Z,22.70
2019-01-06T15:54:57.479Z,22.30
2019-01-06T15:57:44.062Z,22.60
2019-01-06T16:00:30.767Z,22.20
2019-01-06T16:03:00.984Z,22.60
2019-01-06T16:05:36.994Z,22.50
2019-01-06T16:08:19.041Z,22.70
2019-01-06T16:10:49.294Z,21.30
2019-01-06T16:13:35.229Z,22.00
2019-01-06T16:16:14.203Z,20.80
2019-01-06T16:19:01.602Z,20.40
2019-01-06T16:21:48.066Z,18.90
2019-01-06T16:24:36.880Z,18.60
2019-01-06T16:27:10.061Z,19.50
2019-01-06T16:29:56.515Z,20.00
2019-01-06T16:32:29.468Z,20.90
2019-01-06T16:35:16.038Z,21.10
2019-01-06T16:38:04.215Z,21.60
2019-01-06T16:40:40.556Z,21.90
2019-01-06T16:43:25.569Z,22.10
2019-01-06T16:46:10.745Z,21.80
2019-01-06T16:48:47.098Z,22.30
2019-01-06T16:51:22.854Z,22.00
2019-01-06T16:53:53.120Z,20.70
2019-01-06T16:56:23.331Z,21.00
2019-01-06T16:58:53.551Z,21.60
2019-01-06T17:01:29.518Z,22.10
2019-01-06T17:04:15.040Z,22.30
2019-01-06T17:06:51.154Z,22.50
2019-01-06T17:09:27.381Z,22.50
2019-01-06T17:12:12.989Z,22.50
2019-01-06T17:14:59.387Z,22.50
2019-01-06T17:17:47.722Z,22.90
2019-01-06T17:20:17.938Z,23.00
2019-01-06T17:22:51.193Z,23.10
2019-01-06T17:25:33.430Z,23.10
2019-01-06T17:28:21.719Z,23.20
2019-01-06T17:30:51.926Z,23.00
2019-01-06T17:33:22.068Z,22.80
2019-01-06T17:36:08.518Z,22.60
2019-01-06T17:38:44.453Z,22.90
2019-01-06T17:41:29.496Z,23.20
2019-01-06T17:43:59.708Z,23.10
2019-01-06T17:46:47.987Z,23.10
2019-01-06T17:49:24.515Z,22.90
2019-01-06T17:52:06.992Z,22.90
2019-01-06T17:54:53.637Z,23.00
2019-01-06T17:57:24.406Z,22.90
2019-01-06T17:59:57.643Z,23.00
2019-01-06T18:02:37.156Z,23.30
2019-01-06T18:05:07.878Z,23.10
2019-01-06T18:07:38.085Z,23.00
2019-01-06T18:10:29.023Z,22.60
2019-01-06T18:13:02.011Z,22.90
2019-01-06T18:15:48.433Z,23.30
2019-01-06T18:18:18.583Z,23.60
2019-01-06T18:21:05.399Z,24.00
2019-01-06T18:23:41.740Z,24.10
2019-01-06T18:26:12.007Z,24.10
2019-01-06T18:28:58.389Z,24.20
2019-01-06T18:31:44.799Z,24.10
2019-01-06T18:34:20.973Z,24.30
2019-01-06T18:37:03.705Z,24.30
2019-01-06T18:39:48.918Z,24.20
2019-01-06T18:42:31.230Z,23.80
2019-01-06T18:45:10.170Z,23.80
2019-01-06T18:47:49.042Z,23.80
2019-01-06T18:50:31.608Z,23.80
2019-01-06T18:53:10.864Z,24.00
2019-01-06T18:55:46.833Z,24.20
2019-01-06T18:58:23.939Z,24.30
2019-01-06T19:01:10.252Z,24.30
2019-01-06T19:03:46.406Z,24.10
2019-01-06T19:06:16.555Z,24.00
2019-01-06T19:08:56.624Z,24.10
2019-01-06T19:11:42.083Z,24.20
2019-01-06T19:14:18.030Z,24.30
2019-01-06T19:16:48.172Z,24.40
2019-01-06T19:19:30.680Z,24.30
2019-01-06T19:22:09.653Z,23.90
2019-01-06T19:24:42.858Z,23.50
2019-01-06T19:27:18.920Z,23.20
2019-01-06T19:29:52.079Z,23.10
2019-01-06T19:32:58.114Z,22.90
2019-01-06T19:35:44.890Z,23.10
2019-01-06T19:38:15.132Z,22.80
2019-01-06T19:41:01.919Z,22.50
2019-01-06T19:43:44.077Z,22.60
2019-01-06T19:46:32.644Z,22.60
2019-01-06T19:49:11.903Z,22.80
2019-01-06T19:51:42.149Z,22.80
2019-01-06T19:54:30.819Z,23.10
2019-01-06T19:57:13.426Z,23.10
2019-01-06T19:59:52.374Z,23.20
2019-01-06T20:02:25.072Z,23.30
2019-01-06T20:04:55.291Z,23.40
2019-01-06T20:07:32.631Z,23.50
2019-01-06T20:10:02.863Z,23.40
2019-01-06T20:12:51.845Z,23.50
2019-01-06T20:15:37.288Z,23.60
2019-01-06T20:18:08.578Z,23.70
2019-01-06T20:20:55.617Z,23.60
2019-01-06T20:23:42.110Z,23.50
2019-01-06T20:26:12.257Z,23.30
2019-01-06T20:28:54.989Z,23.20
2019-01-06T20:31:40.248Z,23.10
2019-01-06T20:34:19.697Z,23.00
2019-01-06T20:36:55.789Z,23.10
2019-01-06T20:39:26.051Z,23.20
2019-01-06T20:42:05.079Z,23.40
2019-01-06T20:44:50.373Z,23.50
2019-01-06T20:47:36.856Z,23.70
2019-01-06T20:50:23.102Z,23.70
2019-01-06T20:52:56.014Z,23.70
2019-01-06T20:55:29.165Z,23.80
2019-01-06T20:58:16.633Z,23.90
2019-01-06T21:00:46.892Z,23.90
2019-01-06T21:03:33.264Z,23.90
2019-01-06T21:06:09.579Z,23.20
2019-01-06T21:08:57.802Z,23.30
2019-01-06T21:11:28.058Z,23.40
2019-01-06T21:14:14.619Z,23.50
2019-01-06T21:16:53.928Z,23.50
2019-01-06T21:19:27.163Z,23.60
2019-01-06T21:22:12.115Z,23.60
2019-01-06T21:24:58.615Z,23.50
2019-01-06T21:27:43.818Z,23.50
2019-01-06T21:30:19.732Z,23.50
2019-01-06T21:33:06.167Z,23.70
2019-01-06T21:35:36.385Z,23.80
2019-01-06T21:38:06.590Z,23.80
2019-01-06T21:40:45.832Z,23.80
2019-01-06T21:43:32.287Z,23.30
2019-01-06T21:46:17.621Z,22.30
2019-01-06T21:48:59.938Z,22.60
2019-01-06T21:51:39.853Z,21.70
2019-01-06T21:54:16.205Z,22.00
2019-01-06T21:56:49.154Z,22.40
2019-01-06T21:59:28.551Z,22.60
2019-01-06T22:02:10.818Z,22.90
2019-01-06T22:04:41.020Z,22.80
2019-01-06T22:07:14.592Z,22.60
2019-01-06T22:09:57.525Z,22.70
2019-01-06T22:12:27.790Z,22.90
2019-01-06T22:15:00.940Z,23.10
2019-01-06T22:17:43.343Z,23.20
2019-01-06T22:20:31.740Z,23.30
2019-01-06T22:23:01.922Z,23.40
2019-01-06T22:25:32.075Z,23.00
2019-01-06T22:28:15.334Z,22.80
2019-01-06T22:31:02.017Z,23.00
2019-01-06T22:33:49.274Z,23.20
2019-01-06T22:36:25.218Z,23.30
2019-01-06T22:38:55.498Z,23.40
2019-01-06T22:41:31.521Z,23.40
2019-01-06T22:44:04.520Z,23.50
2019-01-06T22:46:41.030Z,23.70
2019-01-06T22:49:27.788Z,23.70
2019-01-06T22:52:00.708Z,23.80
2019-01-06T22:54:46.255Z,23.90
2019-01-06T22:57:22.623Z,24.00
2019-01-06T22:59:55.893Z,24.00
2019-01-06T23:02:41.156Z,23.70
2019-01-06T23:05:14.397Z,23.70
2019-01-06T23:08:00.004Z,23.70
2019-01-06T23:10:39.587Z,23.50
2019-01-06T23:13:15.614Z,23.10
2019-01-06T23:15:52.002Z,22.90
2019-01-06T23:18:38.509Z,23.00
2019-01-06T23:21:20.985Z,23.00
2019-01-06T23:24:09.358Z,22.90
2019-01-06T23:26:55.692Z,23.10
2019-01-06T23:29:43.267Z,23.30
2019-01-06T23:32:14.404Z,23.50
2019-01-06T23:34:44.631Z,23.60
2019-01-06T23:37:18.112Z,23.70
2019-01-06T23:40:03.624Z,23.70
2019-01-06T23:42:45.742Z,23.80
2019-01-06T23:45:18.981Z,24.00
2019-01-06T23:47:52.264Z,23.90
2019-01-06T23:50:22.472Z,23.90
2019-01-06T23:52:58.440Z,23.90
2019-01-06T23:55:34.631Z,24.00
2019-01-06T23:58:14.032Z,23.50
